Time;durP1;ratioP1;P1;durP2;ratioP2;P2;SDS_P1;SDS_P2;PMS_P1;PMS_P2;Temp;Humidity;BMP_temperature;BMP_pressure;BME280_temperature;BME280_humidity;BME280_pressure;Samples;Min_cycle;Max_cycle;Signal;HPM_P1;HPM_P2
2023/06/23 00:00:29;;;;;;;35.08;21.30;;;17.60;99.90;;;;;;5053616;28;20051;-56
2023/06/23 00:02:55;;;;;;;42.33;23.70;;;17.60;99.90;;;;;;5052468;28;20047;-59
2023/06/23 00:05:20;;;;;;;43.30;23.60;;;17.60;99.90;;;;;;5047828;28;20029;-55
2023/06/23 00:07:46;;;;;;;35.50;20.98;;;17.60;99.90;;;;;;5053437;28;20478;-62
2023/06/23 00:10:12;;;;;;;36.42;21.65;;;17.60;99.90;;;;;;5053394;28;20108;-60
2023/06/23 00:12:42;;;;;;;37.58;20.20;;;17.50;99.90;;;;;;5053289;28;20056;-54
2023/06/23 00:15:13;;;;;;;39.67;20.52;;;17.50;99.90;;;;;;5046741;28;20383;-59
2023/06/23 00:17:41;;;;;;;28.98;18.85;;;17.50;99.90;;;;;;5052111;28;20048;-60
2023/06/23 00:20:10;;;;;;;32.03;18.92;;;17.50;99.90;;;;;;5053391;28;20021;-60
2023/06/23 00:22:36;;;;;;;26.60;17.85;;;17.50;99.90;;;;;;5053049;28;20074;-61
2023/06/23 00:25:02;;;;;;;34.00;18.00;;;17.50;99.90;;;;;;5047238;28;20057;-59
2023/06/23 00:27:28;;;;;;;26.40;17.13;;;17.50;99.90;;;;;;5053044;28;20055;-61
2023/06/23 00:29:54;;;;;;;30.45;17.55;;;17.50;99.90;;;;;;5053170;28;20439;-57
2023/06/23 00:32:20;;;;;;;30.77;17.52;;;17.50;99.90;;;;;;5053054;28;20513;-61
2023/06/23 00:34:45;;;;;;;35.17;18.95;;;17.50;99.90;;;;;;5051126;28;20709;-59
2023/06/23 00:37:11;;;;;;;33.50;18.98;;;17.50;99.90;;;;;;5052914;28;20021;-61
2023/06/23 00:39:37;;;;;;;31.05;19.42;;;17.50;99.90;;;;;;5052653;28;20096;-59
2023/06/23 00:42:08;;;;;;;34.15;19.25;;;17.50;99.90;;;;;;5052977;28;20060;-60
2023/06/23 00:44:34;;;;;;;33.60;17.33;;;17.40;99.90;;;;;;5052757;28;20101;-61
2023/06/23 00:47:02;;;;;;;32.80;17.75;;;17.40;99.90;;;;;;5052589;28;20104;-59
2023/06/23 00:49:27;;;;;;;35.63;17.27;;;17.40;99.90;;;;;;5051257;28;20027;-62
2023/06/23 00:51:53;;;;;;;27.65;17.17;;;17.40;99.90;;;;;;5050999;28;20108;-59
2023/06/23 00:54:19;;;;;;;31.05;16.52;;;17.40;99.90;;;;;;5052506;28;20055;-59
2023/06/23 00:56:47;;;;;;;29.67;17.52;;;17.40;99.90;;;;;;5052269;28;20025;-63
2023/06/23 00:59:12;;;;;;;34.83;16.88;;;17.40;99.90;;;;;;5052590;28;20013;-59
2023/06/23 01:01:38;;;;;;;35.00;17.60;;;17.40;99.90;;;;;;5052533;28;20021;-57
2023/06/23 01:04:04;;;;;;;30.20;17.10;;;17.30;99.90;;;;;;5052201;28;20024;-60
2023/06/23 01:06:42;;;;;;;32.90;16.65;;;17.30;99.90;;;;;;5050634;28;20386;-62
2023/06/23 01:09:16;;;;;;;31.08;16.58;;;17.30;99.90;;;;;;5051888;28;20390;-62
2023/06/23 01:11:50;;;;;;;29.43;17.07;;;17.30;99.90;;;;;;5049536;28;20028;-59
2023/06/23 01:14:20;;;;;;;;;;;17.30;99.90;;;;;;5052520;28;20035;-60
2023/06/23 01:17:19;;;;;;;27.35;15.57;;;17.20;99.90;;;;;;5052089;28;19911;-58
2023/06/23 01:19:57;;;;;;;30.40;15.88;;;17.30;99.90;;;;;;5046734;28;20025;-57
2023/06/23 01:22:50;;;;;;;23.75;14.85;;;17.20;99.90;;;;;;5050477;28;20029;-58
2023/06/23 01:25:32;;;;;;;26.15;14.38;;;17.20;99.90;;;;;;5052139;28;20024;-62
2023/06/23 01:28:37;;;;;;;24.48;13.77;;;17.20;99.90;;;;;;5052145;28;20573;-60
2023/06/23 01:31:06;;;;;;;22.65;13.20;;;17.20;99.90;;;;;;5042908;28;20025;-62
2023/06/23 01:33:48;;;;;;;29.35;13.43;;;17.20;99.90;;;;;;5052085;28;20509;-61
2023/06/23 01:36:25;;;;;;;24.27;13.73;;;17.10;99.90;;;;;;5052149;28;20021;-58
2023/06/23 01:38:54;;;;;;;25.85;12.90;;;17.10;99.90;;;;;;5051101;28;20025;-59
2023/06/23 01:41:24;;;;;;;20.35;11.73;;;17.10;99.90;;;;;;5052002;28;20037;-60
2023/06/23 01:43:55;;;;;;;25.67;12.50;;;17.10;99.90;;;;;;5050818;28;20566;-60
2023/06/23 01:46:25;;;;;;;27.40;12.07;;;17.10;99.90;;;;;;5050793;28;20061;-58
2023/06/23 01:48:55;;;;;;;21.40;10.93;;;17.10;99.90;;;;;;5052280;28;20056;-59
2023/06/23 01:51:23;;;;;;;24.85;9.85;;;17.00;99.90;;;;;;5049975;28;20025;-56
2023/06/23 01:53:50;;;;;;;20.27;9.82;;;17.10;99.90;;;;;;5051744;28;20509;-57
2023/06/23 01:56:18;;;;;;;26.77;10.68;;;17.10;99.90;;;;;;5051582;28;20043;-59
2023/06/23 01:58:45;;;;;;;18.50;9.80;;;17.00;99.90;;;;;;5051686;28;20029;-59
2023/06/23 02:01:12;;;;;;;15.73;8.45;;;17.00;99.90;;;;;;5051562;28;20379;-62
2023/06/23 02:03:39;;;;;;;16.05;8.75;;;17.00;99.90;;;;;;5050116;28;20014;-60
2023/06/23 02:06:06;;;;;;;15.20;7.90;;;17.00;99.90;;;;;;5051309;28;20526;-60
2023/06/23 02:08:34;;;;;;;16.63;7.85;;;17.00;99.90;;;;;;5051369;28;20024;-59
2023/06/23 02:11:01;;;;;;;20.83;6.82;;;17.00;99.90;;;;;;5049723;28;20025;-58
2023/06/23 02:13:28;;;;;;;14.60;6.03;;;17.00;99.90;;;;;;5051294;28;20060;-59
2023/06/23 02:15:55;;;;;;;13.45;6.18;;;17.00;99.90;;;;;;5051140;28;20100;-61
2023/06/23 02:18:21;;;;;;;15.70;6.40;;;17.00;99.90;;;;;;5051355;28;20021;-60
2023/06/23 02:20:48;;;;;;;8.43;5.40;;;17.00;99.90;;;;;;5049668;28;20433;-59
2023/06/23 02:23:14;;;;;;;11.40;6.40;;;17.00;99.90;;;;;;5051279;28;20415;-60
2023/06/23 02:25:40;;;;;;;12.52;6.40;;;17.00;99.90;;;;;;5051331;28;20060;-53
2023/06/23 02:28:08;;;;;;;12.75;7.30;;;16.90;99.90;;;;;;5055637;28;20482;-59
2023/06/23 02:30:34;;;;;;;11.80;6.15;;;16.90;99.90;;;;;;5055312;28;20032;-60
2023/06/23 02:33:00;;;;;;;17.58;6.65;;;16.90;99.90;;;;;;5055252;28;20104;-59
2023/06/23 02:35:26;;;;;;;13.63;6.32;;;16.90;99.90;;;;;;5053428;28;20032;-57
2023/06/23 02:37:55;;;;;;;11.80;6.03;;;16.90;99.90;;;;;;5055120;28;20017;-58
2023/06/23 02:40:25;;;;;;;9.25;5.30;;;16.90;99.90;;;;;;5054998;28;20387;-59
2023/06/23 02:43:22;;;;;;;14.73;6.50;;;16.90;99.90;;;;;;5055264;28;20017;-57
2023/06/23 02:45:53;;;;;;;10.90;6.35;;;16.90;99.90;;;;;;5054897;28;20017;-61
2023/06/23 02:48:24;;;;;;;11.20;6.72;;;16.90;99.90;;;;;;5053459;28;20037;-59
2023/06/23 02:50:50;;;;;;;11.80;6.25;;;16.90;99.90;;;;;;5054980;28;20021;-60
2023/06/23 02:53:23;;;;;;;15.20;6.68;;;16.90;99.90;;;;;;5054912;28;20024;-63
2023/06/23 02:56:05;;;;;;;15.93;7.63;;;16.90;99.90;;;;;;5045841;28;20027;-61
2023/06/23 02:58:32;;;;;;;19.65;7.10;;;16.90;99.90;;;;;;5054846;28;20013;-61
2023/06/23 03:01:01;;;;;;;16.73;7.63;;;16.90;99.90;;;;;;5053892;28;20371;-57
2023/06/23 03:03:28;;;;;;;14.23;7.75;;;16.90;99.90;;;;;;5051815;28;20021;-59
2023/06/23 03:05:56;;;;;;;13.90;8.43;;;16.90;99.90;;;;;;5054621;28;20024;-61
2023/06/23 03:08:23;;;;;;;26.17;8.00;;;16.90;99.90;;;;;;5054607;28;20402;-61
2023/06/23 03:10:48;;;;;;;16.83;7.63;;;16.90;99.90;;;;;;5054692;28;20482;-59
2023/06/23 03:13:14;;;;;;;13.93;8.68;;;16.90;99.90;;;;;;5054562;28;20096;-56
2023/06/23 03:15:40;;;;;;;17.77;8.35;;;16.90;99.90;;;;;;5034447;28;20116;-61
2023/06/23 03:18:15;;;;;;;18.00;8.18;;;16.90;99.90;;;;;;5054639;28;20020;-58
2023/06/23 03:20:48;;;;;;;20.27;8.93;;;16.90;99.90;;;;;;5054451;28;20095;-59
2023/06/23 03:23:16;;;;;;;20.15;10.35;;;17.00;99.90;;;;;;5054311;28;20491;-61
2023/06/23 03:25:46;;;;;;;25.45;10.63;;;17.00;99.90;;;;;;5054104;28;20033;-62
2023/06/23 03:28:16;;;;;;;25.95;10.57;;;16.90;99.90;;;;;;5054162;28;20104;-59
2023/06/23 03:31:06;;;;;;;27.40;10.93;;;16.90;99.90;;;;;;5053500;28;20043;-62
2023/06/23 03:33:35;;;;;;;27.20;11.00;;;16.90;99.90;;;;;;5054076;28;20016;-60
2023/06/23 03:36:19;;;;;;;25.85;12.38;;;16.90;99.90;;;;;;5052193;28;20044;-61
2023/06/23 03:38:49;;;;;;;17.05;10.55;;;16.90;99.90;;;;;;5053717;28;20025;-62
2023/06/23 03:41:15;;;;;;;19.63;11.77;;;16.90;99.90;;;;;;5054011;28;20035;-62
2023/06/23 03:43:54;;;;;;;22.30;11.85;;;16.90;99.90;;;;;;5053880;28;20087;-61
2023/06/23 03:46:35;;;;;;;24.33;12.32;;;17.00;99.90;;;;;;5052229;28;20052;-58
2023/06/23 03:49:03;;;;;;;25.10;12.30;;;16.90;99.90;;;;;;5053793;28;20055;-61
2023/06/23 03:51:30;;;;;;;27.85;12.90;;;16.90;99.90;;;;;;5053993;28;20399;-61
2023/06/23 03:53:59;;;;;;;22.02;12.07;;;17.00;99.90;;;;;;5051917;28;20017;-59
2023/06/23 03:56:28;;;;;;;25.23;13.25;;;17.00;99.90;;;;;;5053823;28;20045;-58
2023/06/23 03:58:55;;;;;;;31.17;13.25;;;16.90;99.90;;;;;;5053766;28;20100;-57
2023/06/23 04:01:22;;;;;;;30.45;12.70;;;17.00;99.90;;;;;;5052161;28;20029;-58
2023/06/23 04:03:50;;;;;;;26.30;13.18;;;17.00;99.90;;;;;;5045357;28;20398;-60
2023/06/23 04:06:17;;;;;;;23.50;13.77;;;17.00;99.90;;;;;;5053370;28;20013;-58
2023/06/23 04:08:44;;;;;;;23.60;13.68;;;17.00;99.90;;;;;;5053401;28;20037;-58
2023/06/23 04:11:12;;;;;;;24.83;13.80;;;17.00;99.90;;;;;;5053733;28;20013;-57
2023/06/23 04:13:39;;;;;;;32.75;14.95;;;17.00;99.90;;;;;;5053436;28;20017;-58
2023/06/23 04:16:06;;;;;;;25.35;15.32;;;16.90;99.90;;;;;;5051329;28;20025;-57
2023/06/23 04:18:35;;;;;;;28.10;15.10;;;17.00;99.90;;;;;;5053238;28;20025;-58
2023/06/23 04:21:02;;;;;;;29.13;15.38;;;17.00;99.90;;;;;;5053299;28;20013;-56
2023/06/23 04:23:30;;;;;;;30.30;17.60;;;16.90;99.90;;;;;;5052972;28;20051;-59
2023/06/23 04:25:58;;;;;;;31.27;16.15;;;16.90;99.90;;;;;;5053026;28;20021;-58
2023/06/23 04:28:24;;;;;;;35.10;17.65;;;16.90;99.90;;;;;;5053076;28;20078;-57
2023/06/23 04:30:52;;;;;;;39.70;18.27;;;16.90;99.90;;;;;;5050437;28;20475;-56
2023/06/23 04:33:18;;;;;;;30.90;17.27;;;16.90;99.90;;;;;;5053019;28;20087;-56
2023/06/23 04:35:46;;;;;;;33.42;18.63;;;16.80;99.90;;;;;;5052671;28;20467;-60
2023/06/23 04:38:17;;;;;;;33.22;19.50;;;16.80;99.90;;;;;;5052950;28;20013;-58
2023/06/23 04:41:12;;;;;;;31.38;18.20;;;16.90;99.90;;;;;;5052767;28;20111;-57
2023/06/23 04:43:42;;;;;;;32.63;18.42;;;16.90;99.90;;;;;;5052441;28;20048;-59
2023/06/23 04:46:25;;;;;;;35.33;17.48;;;16.90;99.90;;;;;;5050965;28;20021;-59
2023/06/23 04:48:59;;;;;;;32.20;18.10;;;16.90;99.90;;;;;;5050521;28;20028;-61
2023/06/23 04:51:29;;;;;;;31.33;19.27;;;17.00;99.90;;;;;;5052697;28;20436;-57
2023/06/23 04:54:00;;;;;;;32.30;19.08;;;17.00;99.90;;;;;;5052489;28;20021;-56
2023/06/23 04:56:31;;;;;;;29.25;17.30;;;17.00;99.90;;;;;;5052362;28;20428;-58
2023/06/23 04:59:02;;;;;;;38.00;19.05;;;17.10;99.90;;;;;;5052530;28;20021;-60
2023/06/23 05:01:29;;;;;;;32.38;18.55;;;17.10;99.90;;;;;;5048029;28;20091;-55
2023/06/23 05:03:57;;;;;;;44.78;17.83;;;17.10;99.90;;;;;;5052349;28;20017;-59
2023/06/23 05:06:24;;;;;;;36.17;15.80;;;17.10;99.90;;;;;;5052386;28;20024;-57
2023/06/23 05:08:51;;;;;;;35.70;18.75;;;17.20;99.90;;;;;;5052374;28;20052;-56
2023/06/23 05:11:19;;;;;;;34.92;18.50;;;17.20;99.90;;;;;;5052350;28;20429;-59
2023/06/23 05:13:45;;;;;;;32.25;17.42;;;17.30;99.90;;;;;;5051991;28;20029;-56
2023/06/23 05:16:13;;;;;;;37.55;18.20;;;17.30;99.90;;;;;;5050366;28;20047;-58
2023/06/23 05:18:42;;;;;;;28.25;16.98;;;17.30;99.90;;;;;;5051914;28;20025;-59
2023/06/23 05:21:09;;;;;;;37.13;17.80;;;17.30;99.90;;;;;;5052123;28;20021;-57
2023/06/23 05:23:36;;;;;;;37.80;18.15;;;17.30;99.90;;;;;;5051920;28;20013;-59
2023/06/23 05:26:03;;;;;;;32.72;18.35;;;17.40;99.90;;;;;;5051775;28;20025;-60
2023/06/23 05:28:32;;;;;;;32.25;17.50;;;17.40;99.90;;;;;;5051887;28;20481;-60
2023/06/23 05:30:59;;;;;;;31.45;16.70;;;17.50;99.90;;;;;;5047606;28;20017;-58
2023/06/23 05:33:26;;;;;;;27.17;15.27;;;17.50;99.90;;;;;;5051712;28;20020;-57
2023/06/23 05:35:53;;;;;;;34.75;16.48;;;17.60;99.90;;;;;;5051600;28;20021;-61
2023/06/23 05:38:20;;;;;;;33.55;16.90;;;17.60;99.90;;;;;;5051842;28;20096;-59
2023/06/23 05:40:46;;;;;;;32.50;15.55;;;17.60;99.90;;;;;;5051627;28;20021;-60
2023/06/23 05:43:11;;;;;;;36.03;16.25;;;17.70;99.90;;;;;;5052348;28;20027;-58
2023/06/23 05:45:37;;;;;;;34.03;16.65;;;17.60;99.90;;;;;;5049619;28;20025;-58
2023/06/23 05:48:27;;;;;;;30.13;15.90;;;17.60;99.90;;;;;;5051557;28;20033;-61
2023/06/23 05:50:55;;;;;;;32.08;17.27;;;17.60;99.90;;;;;;5051693;28;20116;-56
2023/06/23 05:53:23;;;;;;;28.63;16.63;;;17.60;99.90;;;;;;5051633;28;20420;-53
2023/06/23 05:56:03;;;;;;;32.05;16.63;;;17.60;99.90;;;;;;5050679;28;20033;-58
2023/06/23 05:58:33;;;;;;;30.00;16.83;;;17.60;99.90;;;;;;5050944;28;20020;-54
2023/06/23 06:01:04;;;;;;;26.98;16.10;;;17.60;99.90;;;;;;5046070;28;20027;-57
2023/06/23 06:03:35;;;;;;;28.85;16.17;;;17.70;99.90;;;;;;5051053;28;20028;-60
2023/06/23 06:06:03;;;;;;;34.58;18.15;;;17.70;99.90;;;;;;5050743;28;20028;-61
2023/06/23 06:08:29;;;;;;;37.28;17.33;;;17.70;99.90;;;;;;5050835;28;20103;-58
2023/06/23 06:10:58;;;;;;;35.42;17.20;;;17.70;99.90;;;;;;5050949;28;20104;-59
2023/06/23 06:13:24;;;;;;;38.58;17.98;;;17.70;99.90;;;;;;5050718;28;20017;-60
2023/06/23 06:15:51;;;;;;;33.78;18.00;;;17.70;99.90;;;;;;5048998;28;20041;-61
2023/06/23 06:18:19;;;;;;;33.35;17.65;;;17.80;99.90;;;;;;5049249;28;20024;-56
2023/06/23 06:20:47;;;;;;;37.42;18.40;;;17.70;99.90;;;;;;5051027;28;20440;-58
2023/06/23 06:23:15;;;;;;;37.05;18.75;;;17.70;99.90;;;;;;5050561;28;20013;-57
2023/06/23 06:25:41;;;;;;;39.53;20.33;;;17.70;99.90;;;;;;5050573;28;20024;-61
2023/06/23 06:28:12;;;;;;;35.72;18.50;;;17.70;99.90;;;;;;5048900;28;20032;-59
2023/06/23 06:30:40;;;;;;;31.30;17.77;;;17.80;99.90;;;;;;5051181;28;20021;-61
2023/06/23 06:33:08;;;;;;;32.58;18.10;;;17.80;99.90;;;;;;5050734;28;20606;-59
2023/06/23 06:35:37;;;;;;;34.00;17.50;;;17.80;99.90;;;;;;5050229;28;20029;-59
2023/06/23 06:38:05;;;;;;;32.95;18.17;;;17.90;99.90;;;;;;5050709;28;20021;-59
2023/06/23 06:40:32;;;;;;;30.90;18.52;;;17.80;99.90;;;;;;5050503;28;20024;-59
2023/06/23 06:42:58;;;;;;;39.78;18.70;;;17.90;99.90;;;;;;5048930;28;20033;-59
2023/06/23 06:45:24;;;;;;;35.17;17.30;;;17.90;99.90;;;;;;5050524;28;20104;-58
2023/06/23 06:47:50;;;;;;;33.97;17.27;;;17.90;99.90;;;;;;5048731;28;20068;-59
2023/06/23 06:50:17;;;;;;;35.22;18.50;;;18.00;99.90;;;;;;5050587;28;20017;-56
2023/06/23 06:52:45;;;;;;;29.40;16.83;;;18.00;99.90;;;;;;5050553;28;20036;-58
2023/06/23 06:55:18;;;;;;;35.35;18.20;;;18.00;99.90;;;;;;5050568;28;20043;-59
2023/06/23 06:57:45;;;;;;;35.53;17.20;;;18.20;99.90;;;;;;5050451;28;20061;-60
2023/06/23 07:00:11;;;;;;;30.80;16.05;;;18.30;99.90;;;;;;5050552;28;20092;-61
2023/06/23 07:02:39;;;;;;;35.60;17.85;;;18.40;99.90;;;;;;5045772;28;20024;-60
2023/06/23 07:05:05;;;;;;;33.38;17.25;;;18.50;99.90;;;;;;5050171;28;20029;-58
2023/06/23 07:07:31;;;;;;;37.35;18.58;;;18.50;99.90;;;;;;5050038;28;20025;-59
2023/06/23 07:09:57;;;;;;;28.33;17.80;;;18.50;99.90;;;;;;5050429;28;20515;-62
2023/06/23 07:12:23;;;;;;;27.15;16.83;;;18.50;99.90;;;;;;5051819;28;20399;-60
2023/06/23 07:14:49;;;;;;;33.45;20.02;;;18.60;99.90;;;;;;5054073;28;20108;-58
2023/06/23 07:17:14;;;;;;;39.42;21.95;;;18.70;99.90;;;;;;5052303;28;20056;-59
2023/06/23 07:19:40;;;;;;;35.03;21.95;;;18.70;99.90;;;;;;5053829;28;20045;-62
2023/06/23 07:22:06;;;;;;;44.10;23.73;;;18.70;99.90;;;;;;5052228;28;20082;-62
2023/06/23 07:24:32;;;;;;;38.75;24.08;;;18.70;99.90;;;;;;5053800;28;20355;-62
2023/06/23 07:26:57;;;;;;;37.90;22.08;;;18.70;99.90;;;;;;5053753;28;20026;-59
2023/06/23 07:29:23;;;;;;;45.13;24.35;;;18.70;99.90;;;;;;5053747;28;20139;-58
2023/06/23 07:31:48;;;;;;;40.22;23.83;;;18.90;99.90;;;;;;5049554;28;20032;-55
2023/06/23 07:34:14;;;;;;;39.25;23.73;;;18.90;99.90;;;;;;5053388;28;20032;-60
2023/06/23 07:36:39;;;;;;;43.42;24.25;;;18.90;99.90;;;;;;5053536;28;20086;-58
2023/06/23 07:39:05;;;;;;;39.40;24.40;;;18.90;99.90;;;;;;5053563;28;20496;-61
2023/06/23 07:41:30;;;;;;;35.47;23.10;;;18.90;99.90;;;;;;5051692;28;20403;-60
2023/06/23 07:43:56;;;;;;;38.00;21.88;;;18.90;99.90;;;;;;5053490;28;20048;-59
2023/06/23 07:46:22;;;;;;;38.03;22.70;;;18.90;99.90;;;;;;5043948;28;20037;-61
2023/06/23 07:48:47;;;;;;;44.72;25.58;;;19.00;99.90;;;;;;5044523;28;20025;-61
2023/06/23 07:51:13;;;;;;;39.85;24.13;;;19.00;99.90;;;;;;5053356;28;20127;-61
2023/06/23 07:53:38;;;;;;;36.97;25.27;;;19.10;99.90;;;;;;5051744;28;20021;-60
2023/06/23 07:56:04;;;;;;;42.83;24.85;;;19.10;99.90;;;;;;5046630;28;20017;-61
2023/06/23 07:58:29;;;;;;;39.50;24.10;;;19.20;99.90;;;;;;5053058;28;20492;-61
2023/06/23 08:00:55;;;;;;;37.50;20.63;;;19.20;99.90;;;;;;5051549;28;20021;-62
2023/06/23 08:03:20;;;;;;;36.33;20.50;;;19.30;99.90;;;;;;5052911;28;20049;-59
2023/06/23 08:05:46;;;;;;;26.98;18.08;;;19.40;99.90;;;;;;5052830;28;20032;-62
2023/06/23 08:08:12;;;;;;;32.00;18.05;;;19.40;99.90;;;;;;5053061;28;20017;-61
2023/06/23 08:10:37;;;;;;;24.00;15.43;;;19.50;99.90;;;;;;5053116;28;20021;-60
2023/06/23 08:13:03;;;;;;;25.23;15.63;;;19.60;99.90;;;;;;5051192;28;20474;-59
2023/06/23 08:15:28;;;;;;;22.60;15.98;;;19.70;99.90;;;;;;5052692;28;20096;-61
2023/06/23 08:17:54;;;;;;;20.52;14.52;;;19.80;99.90;;;;;;5052544;28;20544;-60
2023/06/23 08:20:20;;;;;;;24.83;15.75;;;19.80;99.90;;;;;;5051239;28;20024;-62
2023/06/23 08:22:46;;;;;;;22.38;13.70;;;19.90;99.90;;;;;;5052299;28;20079;-60
2023/06/23 08:25:12;;;;;;;24.23;13.73;;;20.00;99.90;;;;;;5051935;28;20028;-61
2023/06/23 08:27:37;;;;;;;27.63;16.15;;;20.00;99.90;;;;;;5052388;28;20016;-60
2023/06/23 08:30:04;;;;;;;30.25;16.67;;;20.00;99.90;;;;;;5050796;28;20471;-61
2023/06/23 08:32:29;;;;;;;23.48;15.07;;;20.00;99.90;;;;;;5052229;28;20029;-62
2023/06/23 08:34:55;;;;;;;25.70;13.75;;;20.10;99.90;;;;;;5052470;28;20044;-61
2023/06/23 08:37:20;;;;;;;18.92;12.00;;;20.20;99.90;;;;;;5048809;28;20482;-58
2023/06/23 08:39:46;;;;;;;19.17;12.85;;;20.20;99.90;;;;;;5047425;28;20034;-62
2023/06/23 08:42:12;;;;;;;19.02;11.48;;;20.40;99.90;;;;;;5047391;28;20029;-60
2023/06/23 08:44:43;;;;;;;25.33;12.55;;;20.60;99.90;;;;;;5052229;28;20033;-60
2023/06/23 08:47:14;;;;;;;27.92;14.23;;;20.80;99.90;;;;;;5050698;28;20155;-62
2023/06/23 08:49:41;;;;;;;20.25;13.07;;;20.80;99.90;;;;;;5052279;28;20028;-60
2023/06/23 08:52:08;;;;;;;23.70;14.25;;;21.00;99.90;;;;;;5052203;28;20012;-62
2023/06/23 08:54:35;;;;;;;24.92;13.32;;;21.00;99.90;;;;;;5051925;28;20071;-60
2023/06/23 08:57:00;;;;;;;22.23;11.82;;;21.00;99.90;;;;;;5051902;28;20029;-59
2023/06/23 08:59:26;;;;;;;22.02;13.52;;;21.00;99.90;;;;;;5051806;28;20043;-60
2023/06/23 09:01:51;;;;;;;25.08;14.57;;;20.90;99.90;;;;;;5050452;28;20029;-60
2023/06/23 09:04:18;;;;;;;19.52;12.95;;;20.80;99.90;;;;;;5051977;28;20037;-60
2023/06/23 09:06:44;;;;;;;17.05;11.20;;;20.80;99.90;;;;;;5051678;28;20028;-62
2023/06/23 09:09:10;;;;;;;21.33;12.30;;;20.80;99.90;;;;;;5050462;28;20112;-62
2023/06/23 09:11:35;;;;;;;24.30;12.77;;;20.80;99.90;;;;;;5051821;28;20025;-61
2023/06/23 09:14:03;;;;;;;22.15;12.18;;;20.90;99.90;;;;;;5051582;28;20450;-59
2023/06/23 09:16:30;;;;;;;17.50;11.43;;;21.10;99.90;;;;;;5045031;28;20021;-60
2023/06/23 09:18:56;;;;;;;18.10;11.90;;;21.10;99.90;;;;;;5051974;28;20035;-61
2023/06/23 09:21:22;;;;;;;21.00;9.80;;;21.20;99.90;;;;;;5050370;28;20104;-60
2023/06/23 09:24:03;;;;;;;19.95;11.25;;;21.30;99.90;;;;;;5051564;28;20059;-56
2023/06/23 09:26:49;;;;;;;21.85;9.95;;;21.40;99.90;;;;;;5051275;28;20052;-59
2023/06/23 09:29:18;;;;;;;14.10;10.23;;;21.50;99.90;;;;;;5051361;28;20033;-57
2023/06/23 09:31:46;;;;;;;17.15;10.63;;;21.40;99.90;;;;;;5049612;28;20482;-61
2023/06/23 09:34:22;;;;;;;16.98;9.02;;;21.40;99.90;;;;;;5051086;28;20064;-59
2023/06/23 09:36:48;;;;;;;19.60;10.00;;;21.40;99.90;;;;;;5051141;28;20075;-61
2023/06/23 09:39:14;;;;;;;15.93;9.35;;;21.40;99.90;;;;;;5051313;28;20421;-60
2023/06/23 09:41:55;;;;;;;14.05;9.63;;;21.50;99.90;;;;;;5051138;28;20083;-56
2023/06/23 09:44:21;;;;;;;18.25;8.82;;;21.60;99.90;;;;;;5051126;28;20053;-60
2023/06/23 09:46:46;;;;;;;13.52;8.40;;;21.60;99.90;;;;;;5049258;28;20063;-59
2023/06/23 09:49:12;;;;;;;13.02;8.35;;;21.60;99.90;;;;;;5051089;28;20540;-62
2023/06/23 09:51:45;;;;;;;10.82;7.70;;;21.60;99.90;;;;;;5048788;28;20047;-60
2023/06/23 09:54:11;;;;;;;11.23;7.05;;;21.50;99.90;;;;;;5050736;28;20025;-59
2023/06/23 09:56:36;;;;;;;10.77;6.60;;;21.50;99.90;;;;;;5050598;28;20029;-55
2023/06/23 09:59:02;;;;;;;13.40;6.68;;;21.70;99.90;;;;;;5049293;28;20029;-60
2023/06/23 10:01:28;;;;;;;7.60;5.97;;;21.80;99.90;;;;;;5048174;28;20021;-56
2023/06/23 10:03:55;;;;;;;12.60;6.68;;;22.10;99.90;;;;;;5050848;28;20164;-57
2023/06/23 10:06:24;;;;;;;17.05;7.30;;;22.20;99.90;;;;;;5050763;28;20062;-60
2023/06/23 10:08:58;;;;;;;14.55;7.53;;;22.20;99.90;;;;;;5051024;28;20033;-60
2023/06/23 10:11:42;;;;;;;15.93;8.38;;;22.50;99.90;;;;;;5049222;28;20383;-61
2023/06/23 10:14:14;;;;;;;11.17;7.53;;;22.60;99.90;;;;;;5049611;28;20051;-61
2023/06/23 10:16:43;;;;;;;11.93;7.85;;;22.40;99.90;;;;;;5050497;28;20383;-60
2023/06/23 10:19:09;;;;;;;17.98;8.82;;;22.40;99.90;;;;;;5050762;28;20017;-62
2023/06/23 10:21:35;;;;;;;13.38;9.88;;;22.40;99.90;;;;;;5050775;28;20017;-62
2023/06/23 10:24:17;;;;;;;15.95;7.95;;;22.40;99.90;;;;;;5047142;28;20144;-60
2023/06/23 10:26:44;;;;;;;14.07;9.25;;;22.40;99.90;;;;;;5046040;28;20131;-61
2023/06/23 10:29:13;;;;;;;16.23;8.63;;;22.60;99.90;;;;;;5049537;28;20033;-60
2023/06/23 10:31:40;;;;;;;15.38;10.48;;;22.60;99.90;;;;;;5050613;28;20491;-59
2023/06/23 10:34:10;;;;;;;18.52;9.40;;;23.00;99.90;;;;;;5050489;28;20033;-59
2023/06/23 10:36:39;;;;;;;17.60;9.02;;;23.00;99.90;;;;;;5050595;28;20024;-58
2023/06/23 10:39:06;;;;;;;12.48;8.75;;;23.00;99.90;;;;;;5050573;28;20537;-58
2023/06/23 10:41:34;;;;;;;13.05;8.38;;;22.80;99.90;;;;;;5048126;28;20406;-62
2023/06/23 10:44:02;;;;;;;18.08;9.57;;;23.00;99.90;;;;;;5044178;28;20028;-60
2023/06/23 10:46:27;;;;;;;17.17;8.63;;;23.00;99.90;;;;;;5050455;28;20082;-61
2023/06/23 10:48:53;;;;;;;13.82;7.22;;;23.30;99.90;;;;;;5052993;28;20025;-61
2023/06/23 10:51:19;;;;;;;13.32;9.32;;;23.50;99.90;;;;;;5053403;28;20102;-58
2023/06/23 10:53:58;;;;;;;15.18;7.57;;;23.50;99.90;;;;;;5054333;28;20479;-60
2023/06/23 10:56:30;;;;;;;11.23;7.65;;;23.40;99.90;;;;;;5054180;28;20045;-59
2023/06/23 10:58:56;;;;;;;16.90;6.80;;;23.40;99.90;;;;;;5054333;28;20021;-58
2023/06/23 11:01:21;;;;;;;11.43;7.55;;;23.80;99.90;;;;;;5049402;28;20039;-59
2023/06/23 11:03:52;;;;;;;14.45;6.80;;;23.70;99.90;;;;;;5052665;28;20029;-59
2023/06/23 11:06:26;;;;;;;13.73;6.68;;;23.50;99.90;;;;;;5054263;28;20017;-59
2023/06/23 11:08:52;;;;;;;10.30;6.55;;;23.70;99.90;;;;;;5054194;28;20769;-58
2023/06/23 11:11:30;;;;;;;13.05;5.70;;;23.90;99.90;;;;;;5054198;28;20445;-59
2023/06/23 11:13:56;;;;;;;8.10;5.57;;;24.30;99.90;;;;;;5053982;28;20043;-58
2023/06/23 11:16:31;;;;;;;8.63;5.43;;;24.40;99.90;;;;;;5045436;28;20099;-58
2023/06/23 11:18:57;;;;;;;7.10;4.47;;;24.50;99.90;;;;;;5054481;28;20033;-60
2023/06/23 11:21:26;;;;;;;9.07;5.05;;;24.80;99.90;;;;;;5052550;28;20399;-61
2023/06/23 11:24:11;;;;;;;13.50;5.43;;;24.60;99.90;;;;;;5053761;28;20055;-56
2023/06/23 11:26:36;;;;;;;;;;;24.50;99.90;;;;;;5053983;28;20540;-56
2023/06/23 11:29:10;;;;;;;6.10;4.30;;;24.80;99.90;;;;;;5053709;28;19900;-57
2023/06/23 11:31:55;;;;;;;6.23;4.00;;;24.60;99.90;;;;;;5051998;28;20100;-58
2023/06/23 11:34:21;;;;;;;11.02;5.38;;;24.80;99.90;;;;;;5051816;28;20315;-56
2023/06/23 11:36:47;;;;;;;7.97;5.80;;;24.90;99.90;;;;;;5053466;28;20021;-54
2023/06/23 11:39:12;;;;;;;7.82;4.40;;;25.10;99.90;;;;;;5053676;28;20053;-59
2023/06/23 11:41:38;;;;;;;9.63;5.13;;;25.00;99.90;;;;;;5051701;28;20029;-61
2023/06/23 11:44:04;;;;;;;8.93;4.38;;;25.00;99.90;;;;;;5053391;28;20029;-62
2023/06/23 11:46:33;;;;;;;5.28;4.53;;;25.30;99.90;;;;;;5053234;28;20032;-60
2023/06/23 11:49:11;;;;;;;6.18;4.05;;;25.50;99.90;;;;;;5051703;28;20108;-63
2023/06/23 11:51:36;;;;;;;6.13;3.78;;;25.60;99.90;;;;;;5053356;28;20017;-58
2023/06/23 11:54:02;;;;;;;9.10;4.80;;;25.90;99.90;;;;;;5053304;28;20024;-58
2023/06/23 11:56:28;;;;;;;9.98;5.00;;;25.80;99.90;;;;;;5052960;28;20021;-60
2023/06/23 11:58:57;;;;;;;7.93;4.47;;;25.80;99.90;;;;;;5051760;28;20100;-62
2023/06/23 12:01:23;;;;;;;10.88;5.40;;;25.80;99.90;;;;;;5045661;28;20020;-59
2023/06/23 12:03:50;;;;;;;10.07;4.30;;;25.90;99.90;;;;;;5053051;28;20506;-62
2023/06/23 12:06:17;;;;;;;11.57;4.20;;;26.20;99.90;;;;;;5052906;28;20021;-61
2023/06/23 12:08:50;;;;;;;6.80;3.78;;;26.30;99.90;;;;;;5052956;28;20400;-62
2023/06/23 12:11:17;;;;;;;4.32;3.47;;;26.50;99.90;;;;;;5052941;28;20100;-63
2023/06/23 12:13:45;;;;;;;4.85;3.25;;;26.50;99.90;;;;;;5051718;28;20029;-59
2023/06/23 12:16:11;;;;;;;23.60;3.72;;;26.70;99.90;;;;;;5047450;28;20018;-59
2023/06/23 12:18:48;;;;;;;6.35;3.50;;;26.50;99.90;;;;;;5052738;28;20043;-56
2023/06/23 12:21:14;;;;;;;8.38;3.70;;;26.20;99.90;;;;;;5051188;28;20017;-57
2023/06/23 12:23:41;;;;;;;4.75;3.10;;;26.10;99.90;;;;;;5052566;28;20072;-58
2023/06/23 12:26:08;;;;;;;5.28;3.08;;;26.30;99.90;;;;;;5052598;28;20191;-59
2023/06/23 12:28:33;;;;;;;5.57;2.97;;;26.50;98.70;;;;;;5052647;28;20025;-55
2023/06/23 12:30:59;;;;;;;7.25;3.00;;;26.60;95.00;;;;;;5050984;28;20086;-56
2023/06/23 12:33:28;;;;;;;3.45;2.53;;;26.50;94.40;;;;;;5052537;28;20041;-59
2023/06/23 12:36:03;;;;;;;5.30;3.22;;;26.60;99.50;;;;;;5052430;28;20079;-60
2023/06/23 12:38:29;;;;;;;;;;;27.10;94.50;;;;;;5052883;28;20102;-61
2023/06/23 12:40:55;;;;;;;4.93;3.13;;;27.20;95.10;;;;;;5050687;28;19916;-59